Time;durP1;ratioP1;P1;durP2;ratioP2;P2;SDS_P1;SDS_P2;PMS_P1;PMS_P2;Temp;Humidity;BMP_temperature;BMP_pressure;BME280_temperature;BME280_humidity;BME280_pressure;Samples;Min_cycle;Max_cycle;Signal;HPM_P1;HPM_P2
2021/03/08 00:01:08;;;;;;;45.47;29.92;;;;;;;2.03;69.43;102312.63;5265662;28;20295;-67
2021/03/08 00:03:39;;;;;;;48.30;30.33;;;;;;;2.04;69.51;102316.06;5265852;28;20134;-67
2021/03/08 00:06:11;;;;;;;46.38;30.45;;;;;;;2.10;69.18;102326.28;5265266;28;20440;-67
2021/03/08 00:08:42;;;;;;;52.58;32.15;;;;;;;2.14;69.82;102318.38;5267053;28;20058;-67
2021/03/08 00:11:13;;;;;;;47.13;32.08;;;;;;;2.05;69.27;102315.22;5265348;28;20017;-67
2021/03/08 00:13:44;;;;;;;45.03;31.42;;;;;;;2.12;69.17;102312.44;5266079;28;20604;-68
2021/03/08 00:16:16;;;;;;;48.55;31.35;;;;;;;2.10;69.63;102311.59;5264755;28;20401;-67
2021/03/08 00:18:47;;;;;;;45.00;31.35;;;;;;;2.07;69.00;102316.84;5265198;28;20116;-67
2021/03/08 00:21:18;;;;;;;48.63;31.48;;;;;;;2.03;69.68;102314.38;5267222;28;20043;-67
2021/03/08 00:23:50;;;;;;;49.70;31.17;;;;;;;2.01;69.17;102318.72;5264133;28;20036;-67
2021/03/08 00:26:21;;;;;;;46.25;29.85;;;;;;;2.03;69.35;102319.56;5263873;28;20021;-67
2021/03/08 00:28:52;;;;;;;49.78;31.83;;;;;;;2.04;69.47;102329.00;5264036;28;20024;-67
2021/03/08 00:31:24;;;;;;;44.97;31.20;;;;;;;2.05;69.50;102326.41;5262219;28;20040;-67
2021/03/08 00:33:55;;;;;;;51.38;32.33;;;;;;;2.07;69.78;102319.44;5267220;28;20031;-67
2021/03/08 00:36:26;;;;;;;49.40;31.80;;;;;;;2.10;70.43;102321.94;5261818;28;20320;-68
2021/03/08 00:38:57;;;;;;;46.97;30.85;;;;;;;2.05;70.23;102321.22;5263693;28;20028;-67
2021/03/08 00:41:29;;;;;;;50.22;31.85;;;;;;;2.01;69.70;102319.59;5264496;28;20033;-67
2021/03/08 00:44:00;;;;;;;48.22;32.03;;;;;;;2.03;70.82;102319.56;5265176;28;20119;-67
2021/03/08 00:46:31;;;;;;;54.25;33.53;;;;;;;1.99;69.90;102317.94;5263131;28;20048;-67
2021/03/08 00:49:03;;;;;;;49.47;32.55;;;;;;;1.96;69.44;102326.59;5265573;28;20393;-67
2021/03/08 00:51:34;;;;;;;48.15;33.00;;;;;;;1.94;69.83;102325.81;5264933;28;20028;-67
2021/03/08 00:54:06;;;;;;;46.45;31.35;;;;;;;2.04;70.24;102316.91;5264079;28;20036;-67
2021/03/08 00:56:37;;;;;;;49.80;32.20;;;;;;;1.97;69.85;102309.34;5266863;28;20037;-67
2021/03/08 00:59:08;;;;;;;46.55;31.10;;;;;;;1.95;70.18;102306.81;5262783;28;20033;-67
2021/03/08 01:01:40;;;;;;;47.78;32.42;;;;;;;2.00;70.18;102311.88;5262890;28;20506;-67
2021/03/08 01:04:11;;;;;;;49.45;32.92;;;;;;;1.92;70.20;102312.91;5246141;28;20456;-67
2021/03/08 01:06:42;;;;;;;51.03;31.98;;;;;;;1.94;69.54;102310.31;5263573;28;20127;-67
2021/03/08 01:09:14;;;;;;;50.35;32.28;;;;;;;1.94;70.71;102313.72;5266302;28;20063;-67
2021/03/08 01:11:46;;;;;;;49.80;32.90;;;;;;;1.90;70.52;102300.94;5263758;28;20449;-68
2021/03/08 01:14:18;;;;;;;49.45;32.28;;;;;;;1.91;70.74;102300.88;5263567;28;20064;-67
2021/03/08 01:16:49;;;;;;;52.22;33.55;;;;;;;1.91;71.25;102290.53;5266409;28;20057;-66
2021/03/08 01:19:20;;;;;;;49.65;31.92;;;;;;;1.94;71.54;102294.81;5262999;28;20013;-67
2021/03/08 01:21:51;;;;;;;48.88;32.85;;;;;;;1.88;70.84;102300.09;5264963;28;20740;-67
2021/03/08 01:24:23;;;;;;;56.97;34.10;;;;;;;1.93;70.99;102298.25;5264591;28;20025;-67
2021/03/08 01:26:54;;;;;;;54.78;33.75;;;;;;;1.85;70.82;102292.44;5262359;28;20029;-67
2021/03/08 01:29:25;;;;;;;48.80;32.55;;;;;;;1.82;71.09;102292.50;5261297;28;20048;-67
2021/03/08 01:31:56;;;;;;;49.47;32.33;;;;;;;1.86;71.20;102297.56;5263813;28;20035;-67
2021/03/08 01:34:28;;;;;;;52.28;34.00;;;;;;;1.82;71.41;102285.63;5263477;28;20032;-67
2021/03/08 01:36:59;;;;;;;53.53;33.58;;;;;;;1.82;71.38;102283.03;5264677;28;20033;-67
2021/03/08 01:39:30;;;;;;;52.30;33.42;;;;;;;1.81;71.58;102283.06;5266685;28;20114;-67
2021/03/08 01:42:01;;;;;;;56.92;34.53;;;;;;;1.79;71.46;102284.84;5263826;28;20040;-67
2021/03/08 01:44:33;;;;;;;52.25;33.53;;;;;;;1.81;71.45;102283.06;5261951;28;20032;-67
2021/03/08 01:47:04;;;;;;;55.78;35.28;;;;;;;1.77;71.96;102284.03;5261073;28;20068;-67
2021/03/08 01:49:35;;;;;;;54.42;34.75;;;;;;;1.84;71.33;102280.41;5263992;28;20028;-67
2021/03/08 01:52:09;;;;;;;53.40;34.45;;;;;;;1.82;71.44;102288.22;5263060;28;20549;-67
2021/03/08 01:54:40;;;;;;;;;;;;;;;2.02;70.13;102279.94;5263947;28;20085;-67
2021/03/08 01:57:12;;;;;;;53.20;33.30;;;;;;;1.85;71.30;102280.34;5261762;28;20406;-67
2021/03/08 01:59:43;;;;;;;55.42;34.30;;;;;;;1.80;71.59;102277.03;5262277;28;20420;-67
2021/03/08 02:02:16;;;;;;;53.92;35.33;;;;;;;1.77;71.68;102279.69;5263393;28;20032;-67
2021/03/08 02:04:48;;;;;;;56.92;35.17;;;;;;;1.74;72.08;102271.19;5260810;28;20037;-67
2021/03/08 02:07:19;;;;;;;53.67;34.08;;;;;;;1.73;72.01;102272.06;5263544;28;20056;-67
2021/03/08 02:09:50;;;;;;;54.53;34.03;;;;;;;1.75;72.24;102280.66;5264544;28;20376;-67
2021/03/08 02:12:32;;;;;;;53.53;33.88;;;;;;;1.76;72.24;102264.25;5264394;28;20071;-67
2021/03/08 02:15:20;;;;;;;57.45;34.72;;;;;;;1.87;71.48;102267.41;5244054;28;20033;-66
2021/03/08 02:18:02;;;;;;;54.17;35.72;;;;;;;1.82;72.69;102272.69;5264260;28;20479;-66
2021/03/08 02:20:52;;;;;;;62.35;34.42;;;;;;;1.78;72.64;102268.50;5260472;28;20368;-67
2021/03/08 02:23:23;;;;;;;56.65;35.00;;;;;;;1.74;72.17;102269.44;5259413;28;20044;-66
2021/03/08 02:26:26;;;;;;;56.47;35.47;;;;;;;1.85;71.69;102272.59;5261002;28;20301;-67
2021/03/08 02:29:34;;;;;;;54.38;34.33;;;;;;;1.83;71.90;102268.38;5241859;28;20036;-67
2021/03/08 02:32:09;;;;;;;58.00;34.92;;;;;;;1.75;72.09;102265.16;5260571;28;20059;-67
2021/03/08 02:35:02;;;;;;;55.33;36.05;;;;;;;1.82;72.26;102262.38;5261799;28;20075;-67
2021/03/08 02:37:41;;;;;;;58.30;34.60;;;;;;;1.72;72.68;102252.31;5264498;28;20059;-67
2021/03/08 02:40:17;;;;;;;56.55;35.33;;;;;;;1.72;72.92;102252.31;5260784;28;20048;-67
2021/03/08 02:42:53;;;;;;;56.38;35.72;;;;;;;1.70;72.38;102253.19;5262373;28;20024;-67
2021/03/08 02:45:27;;;;;;;55.97;34.75;;;;;;;1.67;72.09;102261.00;5262334;28;20035;-66
2021/03/08 02:48:01;;;;;;;56.38;35.97;;;;;;;1.67;72.38;102258.44;5261301;28;20029;-67
2021/03/08 02:50:34;;;;;;;55.33;35.70;;;;;;;1.67;72.58;102247.25;5259783;28;20025;-67
2021/03/08 02:53:08;;;;;;;57.25;35.30;;;;;;;1.68;72.91;102242.03;5256806;28;20024;-67
2021/03/08 02:55:44;;;;;;;57.33;34.00;;;;;;;1.70;73.03;102235.09;5260997;28;20568;-67
2021/03/08 02:58:17;;;;;;;58.88;36.05;;;;;;;1.70;73.23;102242.88;5260853;28;20492;-67
2021/03/08 03:00:49;;;;;;;60.53;36.80;;;;;;;1.72;73.06;102240.22;5259720;28;20036;-67
2021/03/08 03:03:21;;;;;;;58.38;35.30;;;;;;;1.69;73.22;102237.72;5260059;28;20021;-67
2021/03/08 03:05:54;;;;;;;55.15;34.15;;;;;;;1.77;73.44;102245.28;5260014;28;20326;-67
2021/03/08 03:08:28;;;;;;;56.90;36.63;;;;;;;1.71;73.40;102243.69;5261623;28;20708;-67
2021/03/08 03:11:00;;;;;;;58.90;36.67;;;;;;;1.73;73.65;102241.06;5260407;28;20046;-67
2021/03/08 03:13:32;;;;;;;61.83;36.08;;;;;;;1.66;73.80;102238.63;5262690;28;20106;-67
2021/03/08 03:16:05;;;;;;;61.88;37.63;;;;;;;1.74;73.69;102237.59;5262779;28;20510;-66
2021/03/08 03:18:38;;;;;;;58.85;37.53;;;;;;;1.73;73.77;102241.91;5261703;28;20475;-67
2021/03/08 03:21:10;;;;;;;59.15;37.13;;;;;;;1.71;73.95;102238.53;5262091;28;20040;-67
2021/03/08 03:23:43;;;;;;;59.85;37.15;;;;;;;1.74;73.19;102235.00;5263939;28;20028;-67
2021/03/08 03:26:15;;;;;;;57.17;36.42;;;;;;;1.70;73.49;102235.09;5260725;28;20028;-67
2021/03/08 03:28:48;;;;;;;62.38;39.17;;;;;;;1.70;73.59;102226.47;5261819;28;20277;-66
2021/03/08 03:31:20;;;;;;;57.00;36.10;;;;;;;1.68;73.42;102223.09;5263516;28;20136;-67
2021/03/08 03:33:52;;;;;;;59.45;36.33;;;;;;;1.68;74.34;102221.38;5261207;28;20053;-67
2021/03/08 03:36:27;;;;;;;56.92;36.42;;;;;;;1.67;73.89;102236.91;5260685;28;20196;-67
2021/03/08 03:38:58;;;;;;;56.30;36.33;;;;;;;1.65;73.71;102234.34;5262520;28;20492;-66
2021/03/08 03:41:30;;;;;;;57.15;36.58;;;;;;;1.64;73.96;102231.81;5262768;28;20028;-67
2021/03/08 03:44:02;;;;;;;60.10;37.05;;;;;;;1.67;73.64;102240.34;5263283;28;20516;-67
2021/03/08 03:46:43;;;;;;;56.25;36.45;;;;;;;1.67;73.76;102239.50;5263291;28;20116;-67
2021/03/08 03:49:17;;;;;;;63.63;39.22;;;;;;;1.65;73.61;102238.69;5261853;28;20032;-66
2021/03/08 03:51:48;;;;;;;56.03;36.15;;;;;;;1.64;74.14;102245.59;5260946;28;20090;-67
2021/03/08 03:54:20;;;;;;;59.80;37.60;;;;;;;1.62;74.35;102238.75;5262296;28;20032;-67
2021/03/08 03:56:54;;;;;;;58.03;36.90;;;;;;;1.65;74.24;102241.25;5260959;28;20033;-67
2021/03/08 03:59:38;;;;;;;62.80;36.95;;;;;;;1.72;74.09;102249.72;5259457;28;20055;-67
2021/03/08 04:02:22;;;;;;;64.22;38.75;;;;;;;1.74;74.12;102250.50;5261836;28;20025;-67
2021/03/08 04:04:58;;;;;;;60.00;36.47;;;;;;;1.70;74.22;102260.06;5259584;28;20057;-66
2021/03/08 04:07:35;;;;;;;62.03;38.83;;;;;;;1.68;73.89;102252.38;5262954;28;20078;-67
2021/03/08 04:10:10;;;;;;;59.67;38.60;;;;;;;1.73;74.60;102264.31;5261873;28;20032;-67
2021/03/08 04:12:45;;;;;;;60.17;37.65;;;;;;;1.72;74.54;102255.72;5264664;28;20037;-67
2021/03/08 04:15:18;;;;;;;58.33;36.55;;;;;;;1.72;74.69;102252.31;5267246;28;20072;-67
2021/03/08 04:17:51;;;;;;;57.67;37.08;;;;;;;1.68;74.81;102252.38;5263942;28;20029;-67
2021/03/08 04:20:23;;;;;;;61.63;38.88;;;;;;;1.67;74.64;102249.84;5263425;28;20497;-67
2021/03/08 04:22:57;;;;;;;59.63;37.90;;;;;;;1.65;74.28;102251.59;5266029;28;20046;-66
2021/03/08 04:25:30;;;;;;;60.83;37.95;;;;;;;1.60;74.08;102259.47;5264023;28;20039;-67
2021/03/08 04:28:04;;;;;;;60.13;37.42;;;;;;;1.56;74.70;102260.44;5266350;28;20063;-67
2021/03/08 04:30:36;;;;;;;58.47;36.78;;;;;;;1.56;74.86;102257.84;5263060;28;20052;-67
2021/03/08 04:33:09;;;;;;;55.63;36.63;;;;;;;1.53;74.85;102262.25;5265656;28;20446;-67
2021/03/08 04:35:44;;;;;;;57.42;37.53;;;;;;;1.56;74.88;102268.19;5256058;28;20031;-67
2021/03/08 04:38:16;;;;;;;59.72;36.70;;;;;;;1.51;75.23;102269.16;5265731;28;20470;-67
2021/03/08 04:40:49;;;;;;;62.75;38.75;;;;;;;1.50;75.27;102280.38;5263656;28;20070;-67
2021/03/08 04:43:25;;;;;;;63.60;36.10;;;;;;;1.46;74.87;102274.44;5244371;28;20327;-66
2021/03/08 04:45:57;;;;;;;61.40;37.17;;;;;;;1.40;74.97;102272.00;5264121;28;20028;-67
2021/03/08 04:48:29;;;;;;;59.13;36.33;;;;;;;1.39;75.58;102283.22;5264168;28;20039;-67
2021/03/08 04:51:04;;;;;;;65.90;37.35;;;;;;;1.49;74.83;102270.94;5263746;28;20497;-67
2021/03/08 04:53:37;;;;;;;58.25;36.03;;;;;;;1.37;75.78;102278.09;5262359;28;20075;-67
2021/03/08 04:56:09;;;;;;;61.47;37.70;;;;;;;1.34;74.94;102275.59;5265075;28;20020;-67
2021/03/08 04:58:40;;;;;;;62.15;37.35;;;;;;;1.32;75.49;102284.25;5262814;28;20020;-67
2021/03/08 05:01:12;;;;;;;60.45;38.25;;;;;;;1.37;75.46;102278.09;5257756;28;20529;-67
2021/03/08 05:03:45;;;;;;;58.10;35.90;;;;;;;1.37;75.55;102278.09;5263425;28;20028;-67
2021/03/08 05:06:17;;;;;;;59.58;37.67;;;;;;;1.35;75.95;102279.00;5259038;28;20575;-66
2021/03/08 05:08:50;;;;;;;58.63;36.42;;;;;;;1.38;75.09;102276.38;5265419;28;20379;-67
2021/03/08 05:11:22;;;;;;;61.55;38.70;;;;;;;1.31;75.60;102274.81;5266346;28;20028;-67
2021/03/08 05:13:55;;;;;;;64.97;39.30;;;;;;;1.25;75.88;102282.69;5262704;28;20441;-67
2021/03/08 05:16:27;;;;;;;62.90;37.28;;;;;;;1.28;75.67;102287.78;5263972;28;20398;-67
2021/03/08 05:19:00;;;;;;;60.80;36.90;;;;;;;1.27;76.25;102286.09;5262752;28;20025;-67
2021/03/08 05:21:33;;;;;;;60.92;36.92;;;;;;;1.28;76.00;102287.78;5263642;28;20036;-66
2021/03/08 05:24:05;;;;;;;59.40;35.33;;;;;;;1.30;75.64;102280.84;5264358;28;20074;-67
2021/03/08 05:26:37;;;;;;;60.60;37.50;;;;;;;1.23;75.84;102274.13;5263215;28;20029;-67
2021/03/08 05:29:09;;;;;;;66.93;38.28;;;;;;;1.20;76.82;102281.06;5243145;28;20048;-67
2021/03/08 05:31:43;;;;;;;62.55;36.78;;;;;;;1.24;76.40;102286.16;5262766;28;20552;-66
2021/03/08 05:34:18;;;;;;;58.88;37.33;;;;;;;1.23;76.17;102287.03;5264807;28;20029;-67
2021/03/08 05:36:50;;;;;;;59.38;36.88;;;;;;;1.24;75.66;102281.00;5262435;28;20662;-67
2021/03/08 05:39:21;;;;;;;61.28;38.90;;;;;;;1.33;77.18;102280.78;5266877;28;20032;-67
2021/03/08 05:42:15;;;;;;;62.10;37.03;;;;;;;1.36;76.63;102283.28;5264844;28;20036;-67
2021/03/08 05:45:18;;;;;;;64.60;38.25;;;;;;;1.32;76.25;102284.25;5263141;28;20081;-67
2021/03/08 05:48:10;;;;;;;59.38;36.25;;;;;;;1.30;76.20;102289.44;5264177;28;20017;-67
2021/03/08 05:51:09;;;;;;;59.40;35.65;;;;;;;1.32;76.12;102284.25;5264580;28;20055;-66
2021/03/08 05:54:28;;;;;;;63.38;36.72;;;;;;;1.36;75.92;102278.13;5262641;28;20035;-67
2021/03/08 05:57:21;;;;;;;66.45;38.33;;;;;;;1.36;76.73;102283.28;5257700;28;20052;-67
2021/03/08 05:59:52;;;;;;;64.13;39.00;;;;;;;1.28;76.55;102288.63;5264858;28;20028;-67
2021/03/08 06:02:46;;;;;;;64.35;39.63;;;;;;;1.28;76.36;102285.19;5262778;28;20040;-67
2021/03/08 06:05:38;;;;;;;65.85;39.42;;;;;;;1.25;76.27;102283.56;5264414;28;20044;-67
2021/03/08 06:08:38;;;;;;;62.97;39.47;;;;;;;1.20;76.53;102296.53;5262267;28;20597;-67
2021/03/08 06:11:14;;;;;;;64.50;37.60;;;;;;;1.21;75.70;102287.06;5262413;28;20032;-67
2021/03/08 06:13:58;;;;;;;63.92;38.70;;;;;;;1.18;76.31;102297.47;5263880;28;20021;-67
2021/03/08 06:16:34;;;;;;;62.35;38.33;;;;;;;1.20;76.23;102296.53;5262228;28;20037;-67
2021/03/08 06:19:07;;;;;;;64.22;37.03;;;;;;;1.16;76.85;102296.66;5261488;28;20033;-67
2021/03/08 06:21:39;;;;;;;67.50;38.30;;;;;;;1.16;76.91;102292.34;5262063;28;20932;-67
2021/03/08 06:24:12;;;;;;;68.55;38.72;;;;;;;1.13;76.99;102297.56;5264908;28;20120;-66
2021/03/08 06:26:46;;;;;;;69.93;39.38;;;;;;;1.16;77.48;102304.41;5264069;28;20039;-67
2021/03/08 06:29:18;;;;;;;75.60;40.72;;;;;;;1.18;77.08;102300.06;5262017;28;20020;-68
2021/03/08 06:31:50;;;;;;;70.82;38.00;;;;;;;1.17;76.70;102308.66;5264041;28;20031;-66
2021/03/08 06:34:22;;;;;;;71.22;40.17;;;;;;;1.15;77.16;102305.28;5261715;28;20128;-67
2021/03/08 06:36:54;;;;;;;67.72;39.08;;;;;;;1.20;76.76;102308.59;5262692;28;20040;-67
2021/03/08 06:39:25;;;;;;;68.00;42.22;;;;;;;1.16;77.11;102304.41;5261386;28;20029;-66
2021/03/08 06:41:58;;;;;;;70.75;40.78;;;;;;;1.19;76.69;102304.34;5262988;28;20020;-67
2021/03/08 06:44:30;;;;;;;;;;;;;;;1.38;75.81;102308.19;5263350;28;20784;-67
2021/03/08 06:47:04;;;;;;;67.30;39.38;;;;;;;1.25;76.52;102316.25;5261830;28;19909;-67
2021/03/08 06:49:36;;;;;;;71.30;42.15;;;;;;;1.23;76.78;102311.13;5260645;28;20516;-67
2021/03/08 06:52:11;;;;;;;64.90;38.90;;;;;;;1.28;77.08;102309.28;5262116;28;20028;-67
2021/03/08 06:54:44;;;;;;;65.80;40.42;;;;;;;1.30;76.92;102306.69;5257977;28;20028;-67
2021/03/08 06:57:21;;;;;;;64.93;38.70;;;;;;;1.34;76.71;102313.47;5255249;28;20131;-67
2021/03/08 06:59:54;;;;;;;69.50;42.50;;;;;;;1.31;76.71;102316.97;5262186;28;20025;-67
2021/03/08 07:02:46;;;;;;;68.75;41.33;;;;;;;1.42;76.67;102316.72;5263153;28;20476;-67
2021/03/08 07:05:20;;;;;;;69.10;40.15;;;;;;;1.42;76.94;102320.16;5261842;28;20085;-67
2021/03/08 07:07:59;;;;;;;74.03;43.78;;;;;;;1.47;77.22;102325.19;5261560;28;20029;-67
2021/03/08 07:10:38;;;;;;;72.43;40.45;;;;;;;1.51;76.83;102324.25;5262372;28;20441;-67
2021/03/08 07:13:11;;;;;;;71.55;42.90;;;;;;;1.51;77.01;102331.16;5260485;28;20057;-67
2021/03/08 07:15:59;;;;;;;67.77;41.93;;;;;;;1.57;76.25;102326.69;5261680;28;20413;-67
2021/03/08 07:18:31;;;;;;;70.60;41.15;;;;;;;1.56;76.34;102329.31;5262765;28;20637;-67
2021/03/08 07:21:17;;;;;;;76.55;42.03;;;;;;;1.64;76.35;102337.75;5250372;28;20589;-68
2021/03/08 07:23:50;;;;;;;71.95;42.65;;;;;;;1.65;76.61;102329.94;5258045;28;20062;-67
2021/03/08 07:26:25;;;;;;;70.07;41.65;;;;;;;1.69;76.09;102336.72;5259914;28;20540;-67
2021/03/08 07:29:14;;;;;;;70.25;42.45;;;;;;;1.75;75.89;102330.59;5261195;28;20064;-67
2021/03/08 07:31:53;;;;;;;66.97;42.97;;;;;;;1.79;75.79;102337.38;5260909;28;20041;-68
2021/03/08 07:34:24;;;;;;;64.68;41.85;;;;;;;1.83;75.83;102335.56;5261114;28;20146;-67
2021/03/08 07:37:00;;;;;;;72.20;42.75;;;;;;;1.89;75.81;102335.41;5251238;28;20033;-67
2021/03/08 07:39:31;;;;;;;72.45;43.60;;;;;;;1.90;75.55;102332.78;5259069;28;20143;-67
2021/03/08 07:42:09;;;;;;;73.18;43.60;;;;;;;1.96;75.72;102339.53;5259635;28;20437;-67
2021/03/08 07:44:49;;;;;;;71.32;42.25;;;;;;;2.02;75.29;102346.28;5261100;28;20383;-67
2021/03/08 07:47:21;;;;;;;72.53;43.38;;;;;;;2.04;75.55;102347.94;5263875;28;20032;-67
2021/03/08 07:49:52;;;;;;;68.32;42.83;;;;;;;2.06;75.68;102342.75;5262481;28;20033;-67
2021/03/08 07:52:32;;;;;;;71.00;42.28;;;;;;;2.20;75.22;102348.41;5262429;28;20032;-67
2021/03/08 07:55:04;;;;;;;68.35;42.15;;;;;;;2.23;74.72;102344.88;5261489;28;20394;-67
2021/03/08 07:57:37;;;;;;;70.88;43.67;;;;;;;2.31;75.08;102353.28;5264010;28;20039;-67
2021/03/08 08:00:09;;;;;;;71.28;44.10;;;;;;;2.35;74.72;102347.16;5263375;28;20052;-67
2021/03/08 08:02:40;;;;;;;75.50;44.88;;;;;;;2.42;74.91;102354.72;5264414;28;20553;-67
2021/03/08 08:05:12;;;;;;;76.78;45.92;;;;;;;2.47;75.01;102351.19;5262791;28;20378;-67
2021/03/08 08:07:44;;;;;;;75.25;45.63;;;;;;;2.55;74.30;102344.91;5265146;28;20040;-67
2021/03/08 08:10:18;;;;;;;71.37;44.23;;;;;;;2.65;74.68;102355.81;5258489;28;20380;-67
2021/03/08 08:12:52;;;;;;;70.82;45.70;;;;;;;2.71;74.14;102349.66;5258016;28;20105;-67
2021/03/08 08:15:25;;;;;;;73.05;45.33;;;;;;;2.78;74.45;102352.03;5263473;28;20102;-67
2021/03/08 08:17:59;;;;;;;74.28;44.60;;;;;;;2.86;73.64;102349.22;5260911;28;20055;-67
2021/03/08 08:20:31;;;;;;;74.55;43.75;;;;;;;2.90;72.79;102341.31;5260381;28;20486;-67
2021/03/08 08:23:03;;;;;;;73.50;44.25;;;;;;;2.96;72.66;102336.88;5262832;28;20095;-67
2021/03/08 08:25:34;;;;;;;66.97;41.63;;;;;;;3.01;72.98;102341.00;5262848;28;20028;-68
2021/03/08 08:28:06;;;;;;;65.18;40.58;;;;;;;3.11;71.59;102339.84;5261169;28;20709;-67
2021/03/08 08:30:37;;;;;;;69.68;42.60;;;;;;;3.15;71.80;102341.47;5262435;28;20049;-67
2021/03/08 08:33:09;;;;;;;72.97;42.13;;;;;;;3.25;71.10;102338.56;5261048;28;20700;-67
2021/03/08 08:35:40;;;;;;;66.43;43.22;;;;;;;3.34;71.63;102340.91;5263844;28;20612;-67
2021/03/08 08:38:11;;;;;;;65.32;42.80;;;;;;;3.40;71.44;102341.53;5264480;28;20033;-67
2021/03/08 08:40:44;;;;;;;66.20;40.43;;;;;;;3.43;70.32;102335.44;5263637;28;20098;-67
2021/03/08 08:43:15;;;;;;;70.10;43.40;;;;;;;3.51;71.16;102333.44;5259245;28;20322;-67
2021/03/08 08:45:48;;;;;;;69.07;44.30;;;;;;;3.61;71.76;102334.84;5259360;28;20028;-67
2021/03/08 08:48:21;;;;;;;72.55;45.33;;;;;;;3.70;71.61;102348.41;5260531;28;20474;-67
2021/03/08 08:50:54;;;;;;;64.93;43.22;;;;;;;3.80;70.48;102352.41;5254477;28;20063;-67
2021/03/08 08:53:35;;;;;;;61.33;40.90;;;;;;;3.88;70.31;102346.06;5260432;28;20025;-67
2021/03/08 08:56:08;;;;;;;63.80;41.20;;;;;;;3.90;69.82;102344.28;5255644;28;20035;-67
2021/03/08 08:58:50;;;;;;;65.25;41.88;;;;;;;4.03;69.97;102344.72;5261291;28;20036;-67
2021/03/08 09:01:32;;;;;;;65.07;42.25;;;;;;;4.13;69.32;102346.13;5263578;28;20069;-67
2021/03/08 09:04:06;;;;;;;66.72;41.13;;;;;;;4.19;69.24;102352.00;5246345;28;20028;-67
2021/03/08 09:06:45;;;;;;;57.85;39.60;;;;;;;4.24;68.72;102345.72;5264435;28;20032;-68
2021/03/08 09:09:32;;;;;;;61.40;41.15;;;;;;;4.33;68.18;102342.00;5262409;28;20109;-67
2021/03/08 09:12:08;;;;;;;55.47;39.40;;;;;;;4.40;68.27;102351.28;5250776;28;20111;-67
2021/03/08 09:14:49;;;;;;;61.00;39.65;;;;;;;4.49;68.38;102356.13;5258934;28;20036;-67
2021/03/08 09:17:27;;;;;;;63.78;39.72;;;;;;;4.59;67.34;102357.50;5261223;28;20032;-67
2021/03/08 09:19:58;;;;;;;58.92;40.22;;;;;;;4.71;68.27;102351.03;5264103;28;20094;-67
2021/03/08 09:22:31;;;;;;;60.30;41.42;;;;;;;4.76;68.17;102335.28;5243989;28;20037;-67
2021/03/08 09:25:08;;;;;;;58.75;40.22;;;;;;;4.87;67.26;102341.75;5245527;28;20425;-67
2021/03/08 09:27:42;;;;;;;58.08;38.63;;;;;;;4.93;66.15;102340.69;5256433;28;20037;-67
2021/03/08 09:30:20;;;;;;;57.80;38.65;;;;;;;4.98;66.31;102338.78;5243564;28;20098;-67
2021/03/08 09:32:55;;;;;;;61.97;40.08;;;;;;;5.08;65.84;102339.28;5263171;28;20025;-67
2021/03/08 09:35:30;;;;;;;62.85;41.38;;;;;;;5.18;65.65;102342.38;5262193;28;20035;-68
2021/03/08 09:38:06;;;;;;;51.80;36.38;;;;;;;5.28;64.80;102336.75;5249091;28;20021;-66
2021/03/08 09:40:41;;;;;;;52.60;35.80;;;;;;;5.33;63.99;102328.78;5262790;28;20402;-67
2021/03/08 09:43:33;;;;;;;50.75;34.25;;;;;;;5.37;64.26;102332.94;5260517;28;20479;-67
2021/03/08 09:46:08;;;;;;;48.30;33.83;;;;;;;5.47;63.43;102328.25;5262354;28;20029;-66
2021/03/08 09:48:42;;;;;;;48.20;34.00;;;;;;;5.52;62.61;102334.94;5261444;28;20032;-67
2021/03/08 09:51:15;;;;;;;49.88;32.65;;;;;;;5.55;62.62;102334.81;5245660;28;20431;-67
2021/03/08 09:53:52;;;;;;;43.70;31.27;;;;;;;5.67;62.39;102327.44;5242951;28;20074;-67
2021/03/08 09:56:26;;;;;;;41.55;29.60;;;;;;;5.73;61.92;102341.06;5262280;28;20043;-67
2021/03/08 09:59:03;;;;;;;44.60;28.98;;;;;;;5.78;60.95;102320.06;5243109;28;20035;-67
2021/03/08 10:01:35;;;;;;;39.17;27.95;;;;;;;5.86;60.33;102318.81;5253991;28;20371;-67
2021/03/08 10:04:16;;;;;;;40.83;29.08;;;;;;;6.03;60.45;102325.97;5242609;28;20072;-67
2021/03/08 10:06:48;;;;;;;38.65;26.67;;;;;;;6.07;60.44;102327.53;5239851;28;20028;-67
2021/03/08 10:09:23;;;;;;;32.20;24.48;;;;;;;6.16;58.30;102321.09;5255814;28;20029;-67
2021/03/08 10:12:01;;;;;;;35.53;26.02;;;;;;;6.27;58.13;102323.22;5253190;28;20091;-67
2021/03/08 10:14:32;;;;;;;35.88;24.98;;;;;;;6.30;57.26;102326.53;5259484;28;20419;-67
2021/03/08 10:17:11;;;;;;;39.97;26.65;;;;;;;6.39;57.36;102333.09;5261156;28;20021;-67
2021/03/08 10:19:59;;;;;;;30.02;23.63;;;;;;;6.49;57.84;102324.00;5259726;28;20081;-67
2021/03/08 10:22:36;;;;;;;34.90;25.67;;;;;;;6.60;59.28;102320.06;5261744;28;20039;-67
2021/03/08 10:25:20;;;;;;;36.15;25.58;;;;;;;6.72;57.12;102329.94;5261979;28;20036;-67
2021/03/08 10:28:03;;;;;;;34.20;24.42;;;;;;;6.78;57.16;102324.44;5262685;28;20032;-67
2021/03/08 10:30:34;;;;;;;29.37;22.40;;;;;;;6.78;54.37;102324.44;5259934;28;20041;-67
2021/03/08 10:33:17;;;;;;;31.48;22.40;;;;;;;6.82;54.88;102320.81;5259522;28;20535;-67
2021/03/08 10:35:54;;;;;;;32.60;22.95;;;;;;;6.89;54.50;102316.97;5249675;28;20025;-68
2021/03/08 10:38:31;;;;;;;34.33;22.10;;;;;;;7.03;54.01;102318.97;5249744;28;20044;-67
2021/03/08 10:41:05;;;;;;;35.97;24.15;;;;;;;7.08;54.13;102319.59;5254432;28;20032;-67
2021/03/08 10:43:37;;;;;;;29.52;21.27;;;;;;;7.27;54.18;102317.84;5243250;28;20499;-67
2021/03/08 10:46:08;;;;;;;33.38;23.05;;;;;;;7.25;53.08;102317.03;5250804;28;20027;-67
2021/03/08 10:48:56;;;;;;;34.78;24.75;;;;;;;7.23;53.58;102313.66;5243380;28;20025;-67
2021/03/08 10:51:28;;;;;;;34.85;24.83;;;;;;;7.13;53.71;102314.19;5258156;28;20031;-68
2021/03/08 10:54:03;;;;;;;35.35;21.85;;;;;;;7.24;53.87;102306.69;5247435;28;20029;-68
2021/03/08 10:56:37;;;;;;;29.83;21.23;;;;;;;7.30;53.86;102314.22;5239576;28;20051;-67
2021/03/08 10:59:22;;;;;;;31.48;22.25;;;;;;;7.39;54.05;102305.97;5252409;28;20462;-68
2021/03/08 11:02:00;;;;;;;29.45;19.98;;;;;;;7.33;51.97;102311.47;5236809;28;20048;-68
2021/03/08 11:04:32;;;;;;;30.95;19.73;;;;;;;7.31;51.40;102316.75;5249396;28;20033;-68
2021/03/08 11:07:03;;;;;;;30.13;21.58;;;;;;;7.32;50.89;102318.44;5228909;28;20541;-68
2021/03/08 11:09:37;;;;;;;31.83;21.02;;;;;;;7.40;51.62;102315.47;5255894;28;20111;-68
2021/03/08 11:12:23;;;;;;;32.17;21.30;;;;;;;7.62;53.23;102322.28;5250602;28;20028;-68
2021/03/08 11:14:56;;;;;;;27.67;20.08;;;;;;;7.58;50.92;102318.97;5253465;28;20098;-68
2021/03/08 11:17:36;;;;;;;31.05;21.75;;;;;;;7.67;52.16;102320.28;5262068;28;20021;-68
2021/03/08 11:20:07;;;;;;;33.70;22.38;;;;;;;7.74;51.24;102316.44;5242208;28;20044;-68
2021/03/08 11:22:50;;;;;;;31.55;22.33;;;;;;;7.86;52.38;102322.81;5243237;28;20433;-68
2021/03/08 11:25:27;;;;;;;30.38;21.98;;;;;;;7.83;51.45;102315.13;5266972;28;20028;-68
2021/03/08 11:28:00;;;;;;;28.05;20.08;;;;;;;7.75;50.81;102318.97;5248256;28;20267;-68
2021/03/08 11:30:32;;;;;;;32.85;22.13;;;;;;;7.87;51.86;102320.13;5259338;28;20072;-68
2021/03/08 11:33:08;;;;;;;30.25;21.65;;;;;;;7.93;51.92;102312.00;5262207;28;20020;-68
2021/03/08 11:35:40;;;;;;;30.40;21.70;;;;;;;8.01;51.76;102311.59;5266237;28;20032;-68
2021/03/08 11:38:14;;;;;;;29.40;18.37;;;;;;;8.02;50.12;102314.13;5263145;28;20075;-68
2021/03/08 11:40:47;;;;;;;22.30;15.30;;;;;;;8.10;48.74;102313.75;5263129;28;20580;-68
2021/03/08 11:43:20;;;;;;;22.95;15.25;;;;;;;8.16;48.13;102313.44;5264961;28;20079;-68
2021/03/08 11:45:53;;;;;;;23.33;17.67;;;;;;;8.21;48.91;102315.81;5266983;28;20378;-68
2021/03/08 11:48:25;;;;;;;27.60;21.27;;;;;;;8.05;49.58;102313.13;5226502;28;20481;-68
2021/03/08 11:50:56;;;;;;;28.65;20.70;;;;;;;8.28;49.13;102314.56;5242983;28;20439;-69
2021/03/08 11:53:27;;;;;;;28.33;18.77;;;;;;;8.25;50.09;102312.13;5259502;28;20029;-68